Time;durP1;ratioP1;P1;durP2;ratioP2;P2;SDS_P1;SDS_P2;PMS_P1;PMS_P2;Temp;Humidity;BMP_temperature;BMP_pressure;BME280_temperature;BME280_humidity;BME280_pressure;Samples;Min_cycle;Max_cycle;Signal;HPM_P1;HPM_P2
2023/07/03 00:01:40;;;;;;;493.70;448.65;;;;;;;;;;5040693;28;20281;-52
2023/07/03 00:04:10;;;;;;;494.52;447.27;;;;;;;;;;5047310;28;20487;-53
2023/07/03 00:06:36;;;;;;;601.35;547.50;;;;;;;;;;5035523;28;20030;-54
2023/07/03 00:09:02;;;;;;;459.67;419.33;;;;;;;;;;5028756;28;20087;-55
2023/07/03 00:11:27;;;;;;;483.27;440.60;;;;;;;;;;5032266;28;20057;-52
2023/07/03 00:13:52;;;;;;;444.85;403.77;;;;;;;;;;5028858;28;20029;-50
2023/07/03 00:16:17;;;;;;;450.92;407.42;;;;;;;;;;5036329;28;20063;-54
2023/07/03 00:18:43;;;;;;;534.97;484.50;;;;;;;;;;5034018;28;20029;-53
2023/07/03 00:21:08;;;;;;;517.40;469.27;;;;;;;;;;5038137;28;20607;-49
2023/07/03 00:23:33;;;;;;;462.20;417.88;;;;;;;;;;5028316;28;20262;-53
2023/07/03 00:25:58;;;;;;;466.40;424.90;;;;;;;;;;5034454;28;20079;-54
2023/07/03 00:28:24;;;;;;;497.02;454.77;;;;;;;;;;5048179;28;20340;-52
2023/07/03 00:30:49;;;;;;;479.88;438.45;;;;;;;;;;5041772;28;20091;-51
2023/07/03 00:33:14;;;;;;;492.65;449.65;;;;;;;;;;5028315;28;20026;-52
2023/07/03 00:35:40;;;;;;;489.85;448.77;;;;;;;;;;5027389;28;20030;-52
2023/07/03 00:38:06;;;;;;;511.17;467.98;;;;;;;;;;5028012;28;20028;-52
2023/07/03 00:40:31;;;;;;;498.15;455.58;;;;;;;;;;5033045;28;20044;-53
2023/07/03 00:42:56;;;;;;;474.13;431.77;;;;;;;;;;5028138;28;20493;-54
2023/07/03 00:45:22;;;;;;;487.80;446.48;;;;;;;;;;5030985;28;20071;-50
2023/07/03 00:47:47;;;;;;;468.35;426.83;;;;;;;;;;5047655;28;20091;-53
2023/07/03 00:50:13;;;;;;;459.25;417.05;;;;;;;;;;5046548;28;20032;-52
2023/07/03 00:52:38;;;;;;;469.75;427.85;;;;;;;;;;5044398;28;20045;-49
2023/07/03 00:55:04;;;;;;;464.25;421.00;;;;;;;;;;5044760;28;20037;-52
2023/07/03 00:57:30;;;;;;;469.27;426.50;;;;;;;;;;5048947;28;20037;-52
2023/07/03 00:59:56;;;;;;;488.45;445.30;;;;;;;;;;5064853;28;20051;-50
2023/07/03 01:02:25;;;;;;;494.85;451.23;;;;;;;;;;5050851;28;20066;-52
2023/07/03 01:04:50;;;;;;;;;;;;;;;;;;5065542;28;20047;-52
2023/07/03 01:07:18;;;;;;;465.38;420.80;;;;;;;;;;5046891;28;19909;-53
2023/07/03 01:09:45;;;;;;;485.58;440.83;;;;;;;;;;5044589;28;20121;-52
2023/07/03 01:12:11;;;;;;;477.00;431.00;;;;;;;;;;5044335;28;20056;-54
2023/07/03 01:14:38;;;;;;;474.95;432.08;;;;;;;;;;5048282;28;20033;-52
2023/07/03 01:17:09;;;;;;;484.67;441.70;;;;;;;;;;5058844;28;20147;-51
2023/07/03 01:19:35;;;;;;;472.92;429.75;;;;;;;;;;5064784;28;20028;-52
2023/07/03 01:22:24;;;;;;;492.75;447.98;;;;;;;;;;5048800;28;20021;-50
2023/07/03 01:24:52;;;;;;;474.05;427.30;;;;;;;;;;4992091;28;20030;-54
2023/07/03 01:27:20;;;;;;;452.73;409.77;;;;;;;;;;4987551;28;20536;-53
2023/07/03 01:29:46;;;;;;;462.63;419.83;;;;;;;;;;4995607;28;20029;-52
2023/07/03 01:32:13;;;;;;;475.92;432.65;;;;;;;;;;4988257;28;20129;-54
2023/07/03 01:34:43;;;;;;;478.23;434.77;;;;;;;;;;4984784;28;20682;-51
2023/07/03 01:37:08;;;;;;;486.60;442.92;;;;;;;;;;5000979;28;20402;-51
2023/07/03 01:39:34;;;;;;;481.52;438.27;;;;;;;;;;5003863;28;20033;-52
2023/07/03 01:41:59;;;;;;;469.33;426.77;;;;;;;;;;5002192;28;20042;-54
2023/07/03 01:44:25;;;;;;;463.77;421.08;;;;;;;;;;4995520;28;20034;-53
2023/07/03 01:46:50;;;;;;;472.48;429.70;;;;;;;;;;4998283;28;20033;-51
2023/07/03 01:49:16;;;;;;;467.42;425.83;;;;;;;;;;5003735;28;20556;-53
2023/07/03 01:51:56;;;;;;;479.17;435.98;;;;;;;;;;4992221;28;20033;-53
2023/07/03 01:54:34;;;;;;;484.23;440.42;;;;;;;;;;4984557;28;20085;-53
2023/07/03 01:57:01;;;;;;;485.08;441.00;;;;;;;;;;4998787;28;20034;-50
2023/07/03 01:59:29;;;;;;;482.83;440.05;;;;;;;;;;5003726;28;20030;-54
2023/07/03 02:02:00;;;;;;;475.60;433.70;;;;;;;;;;5011976;28;20049;-52
2023/07/03 02:04:30;;;;;;;499.60;455.98;;;;;;;;;;5026519;28;20104;-54
2023/07/03 02:06:56;;;;;;;518.28;473.73;;;;;;;;;;5026693;28;20132;-53
2023/07/03 02:09:21;;;;;;;514.95;469.65;;;;;;;;;;5026456;28;20036;-55
2023/07/03 02:11:47;;;;;;;524.95;479.45;;;;;;;;;;5029811;28;20034;-53
2023/07/03 02:14:13;;;;;;;506.67;461.50;;;;;;;;;;5036510;28;20030;-52
2023/07/03 02:16:41;;;;;;;461.23;416.40;;;;;;;;;;5037848;28;20070;-50
2023/07/03 02:19:06;;;;;;;459.57;417.53;;;;;;;;;;5045158;28;20036;-53
2023/07/03 02:21:32;;;;;;;478.75;431.77;;;;;;;;;;5035695;28;20262;-54
2023/07/03 02:23:57;;;;;;;501.92;458.13;;;;;;;;;;5043588;28;20037;-52
2023/07/03 02:26:23;;;;;;;485.50;440.08;;;;;;;;;;5035291;28;20088;-52
2023/07/03 02:28:48;;;;;;;509.40;465.05;;;;;;;;;;5025558;28;20026;-51
2023/07/03 02:31:13;;;;;;;521.63;476.67;;;;;;;;;;5034939;28;20125;-53
2023/07/03 02:33:38;;;;;;;537.60;491.15;;;;;;;;;;5045108;28;20029;-53
2023/07/03 02:36:04;;;;;;;526.78;480.85;;;;;;;;;;5037633;28;20385;-54
2023/07/03 02:38:29;;;;;;;521.03;475.25;;;;;;;;;;5026185;28;20028;-55
2023/07/03 02:40:55;;;;;;;519.60;473.55;;;;;;;;;;5025913;28;20037;-54
2023/07/03 02:43:20;;;;;;;530.40;484.05;;;;;;;;;;5024040;28;20022;-53
2023/07/03 02:45:45;;;;;;;519.87;473.90;;;;;;;;;;5026033;28;20026;-54
2023/07/03 02:48:11;;;;;;;519.15;473.42;;;;;;;;;;5024462;28;20243;-55
2023/07/03 02:50:36;;;;;;;525.83;479.95;;;;;;;;;;5025475;28;20491;-54
2023/07/03 02:53:02;;;;;;;521.70;475.52;;;;;;;;;;5024660;28;20531;-53
2023/07/03 02:55:27;;;;;;;524.22;478.13;;;;;;;;;;5025159;28;20095;-52
2023/07/03 02:57:54;;;;;;;529.78;482.67;;;;;;;;;;5024551;28;20029;-52
2023/07/03 03:00:19;;;;;;;529.28;483.48;;;;;;;;;;5024450;28;20510;-53
2023/07/03 03:02:45;;;;;;;533.53;487.42;;;;;;;;;;5025590;28;20096;-50
2023/07/03 03:05:11;;;;;;;529.90;483.23;;;;;;;;;;5025283;28;20025;-55
2023/07/03 03:07:36;;;;;;;528.20;482.80;;;;;;;;;;5041857;28;20723;-53
2023/07/03 03:10:02;;;;;;;532.25;486.63;;;;;;;;;;5041920;28;20047;-55
2023/07/03 03:12:27;;;;;;;523.63;475.52;;;;;;;;;;5039999;28;20099;-55
2023/07/03 03:14:53;;;;;;;525.95;479.08;;;;;;;;;;5035056;28;20032;-53
2023/07/03 03:17:18;;;;;;;524.88;477.08;;;;;;;;;;5042448;28;20048;-52
2023/07/03 03:19:43;;;;;;;531.90;485.85;;;;;;;;;;5029451;28;20434;-53
2023/07/03 03:22:08;;;;;;;540.53;492.20;;;;;;;;;;5022642;28;20025;-54
2023/07/03 03:24:34;;;;;;;546.95;498.98;;;;;;;;;;5022417;28;20060;-53
2023/07/03 03:27:05;;;;;;;546.42;498.27;;;;;;;;;;5022678;28;20038;-54
2023/07/03 03:29:30;;;;;;;541.70;494.63;;;;;;;;;;5034350;28;20033;-52
2023/07/03 03:31:56;;;;;;;537.45;491.13;;;;;;;;;;5040026;28;20067;-53
2023/07/03 03:34:21;;;;;;;530.00;484.20;;;;;;;;;;5040435;28;20025;-49
2023/07/03 03:36:46;;;;;;;539.70;492.80;;;;;;;;;;5035649;28;20032;-51
2023/07/03 03:39:12;;;;;;;543.10;494.88;;;;;;;;;;5022536;28;20919;-51
2023/07/03 03:41:37;;;;;;;539.40;492.27;;;;;;;;;;5033763;28;20017;-52
2023/07/03 03:44:03;;;;;;;551.58;503.70;;;;;;;;;;5037898;28;20024;-51
2023/07/03 03:46:28;;;;;;;532.05;483.17;;;;;;;;;;5015196;28;20037;-52
2023/07/03 03:48:53;;;;;;;534.10;487.77;;;;;;;;;;5043204;28;20122;-53
2023/07/03 03:51:18;;;;;;;534.75;488.45;;;;;;;;;;5042896;28;20032;-53
2023/07/03 03:53:44;;;;;;;518.03;469.65;;;;;;;;;;5036776;28;20030;-55
2023/07/03 03:56:09;;;;;;;526.35;478.10;;;;;;;;;;5053517;28;20032;-52
2023/07/03 03:58:34;;;;;;;534.10;486.27;;;;;;;;;;5043146;28;20687;-55
2023/07/03 04:01:00;;;;;;;516.63;468.55;;;;;;;;;;5024776;28;20037;-55
2023/07/03 04:03:26;;;;;;;521.33;473.77;;;;;;;;;;5024656;28;20022;-55
2023/07/03 04:05:51;;;;;;;541.42;493.83;;;;;;;;;;5038473;28;20415;-55
2023/07/03 04:08:16;;;;;;;527.63;480.58;;;;;;;;;;5039216;28;20017;-53
2023/07/03 04:10:42;;;;;;;539.15;493.13;;;;;;;;;;5027142;28;20681;-53
2023/07/03 04:13:08;;;;;;;544.15;497.25;;;;;;;;;;5035399;28;20063;-55
2023/07/03 04:15:35;;;;;;;555.22;506.63;;;;;;;;;;5039845;28;20037;-53
2023/07/03 04:18:00;;;;;;;548.90;503.08;;;;;;;;;;5024939;28;20112;-54
2023/07/03 04:20:26;;;;;;;546.97;501.80;;;;;;;;;;5027084;28;20100;-51
2023/07/03 04:22:52;;;;;;;525.38;482.90;;;;;;;;;;5041654;28;20025;-50
2023/07/03 04:25:17;;;;;;;513.75;472.77;;;;;;;;;;5040092;28;20107;-52
2023/07/03 04:27:43;;;;;;;527.05;485.20;;;;;;;;;;5022937;28;20490;-54
2023/07/03 04:30:08;;;;;;;513.58;473.50;;;;;;;;;;5022197;28;20068;-52
2023/07/03 04:32:34;;;;;;;550.22;506.00;;;;;;;;;;5023602;28;20108;-52
2023/07/03 04:35:00;;;;;;;506.05;466.55;;;;;;;;;;5022821;28;20041;-51
2023/07/03 04:37:26;;;;;;;421.90;391.08;;;;;;;;;;5033285;28;20029;-51
2023/07/03 04:39:53;;;;;;;448.95;414.88;;;;;;;;;;5037548;28;20108;-52
2023/07/03 04:42:19;;;;;;;483.88;446.55;;;;;;;;;;5034542;28;20591;-56
2023/07/03 04:44:46;;;;;;;435.95;403.55;;;;;;;;;;5025279;28;20033;-55
2023/07/03 04:47:15;;;;;;;407.90;377.50;;;;;;;;;;5028115;28;20548;-55
2023/07/03 04:49:41;;;;;;;433.42;401.65;;;;;;;;;;5028802;28;20032;-54
2023/07/03 04:52:06;;;;;;;387.45;359.55;;;;;;;;;;5043655;28;20036;-53
2023/07/03 04:54:31;;;;;;;363.98;337.85;;;;;;;;;;5048334;28;20326;-52
2023/07/03 04:56:57;;;;;;;351.73;325.85;;;;;;;;;;5032433;28;20090;-53
2023/07/03 04:59:22;;;;;;;349.60;322.50;;;;;;;;;;5027329;28;20120;-54
2023/07/03 05:01:47;;;;;;;337.63;313.37;;;;;;;;;;5028211;28;20278;-54
2023/07/03 05:04:12;;;;;;;294.42;272.88;;;;;;;;;;5035290;28;20266;-54
2023/07/03 05:06:38;;;;;;;292.93;271.80;;;;;;;;;;5046645;28;20515;-55
2023/07/03 05:09:04;;;;;;;277.30;257.05;;;;;;;;;;5038654;28;20262;-52
2023/07/03 05:11:30;;;;;;;335.63;309.88;;;;;;;;;;5031143;28;20048;-54
2023/07/03 05:13:55;;;;;;;338.80;312.38;;;;;;;;;;5041373;28;20434;-53
2023/07/03 05:16:21;;;;;;;254.02;236.00;;;;;;;;;;5045342;28;20045;-54
2023/07/03 05:18:46;;;;;;;319.50;295.43;;;;;;;;;;5024783;28;20112;-52
2023/07/03 05:21:11;;;;;;;367.25;339.00;;;;;;;;;;5027255;28;20254;-53
2023/07/03 05:23:37;;;;;;;360.63;335.05;;;;;;;;;;5027170;28;20022;-53
2023/07/03 05:26:02;;;;;;;358.10;331.53;;;;;;;;;;5032013;28;20040;-53
2023/07/03 05:28:28;;;;;;;347.08;319.77;;;;;;;;;;5044211;28;20859;-54
2023/07/03 05:30:54;;;;;;;365.23;340.48;;;;;;;;;;5043794;28;20027;-54
2023/07/03 05:33:19;;;;;;;374.02;350.60;;;;;;;;;;5045942;28;20025;-54
2023/07/03 05:35:45;;;;;;;362.17;339.17;;;;;;;;;;5040931;28;20476;-54
2023/07/03 05:38:10;;;;;;;303.55;281.13;;;;;;;;;;5030106;28;20257;-54
2023/07/03 05:40:35;;;;;;;342.90;319.20;;;;;;;;;;5030383;28;20033;-56
2023/07/03 05:43:00;;;;;;;292.53;271.17;;;;;;;;;;5026995;28;20690;-54
2023/07/03 05:45:26;;;;;;;267.15;246.02;;;;;;;;;;5034028;28;20025;-55
2023/07/03 05:47:51;;;;;;;303.95;283.80;;;;;;;;;;5045579;28;20037;-51
2023/07/03 05:50:16;;;;;;;306.80;286.73;;;;;;;;;;5044215;28;20024;-54
2023/07/03 05:52:43;;;;;;;278.20;257.37;;;;;;;;;;5027221;28;20041;-55
2023/07/03 05:55:09;;;;;;;279.33;258.98;;;;;;;;;;5026890;28;20052;-55
2023/07/03 05:57:34;;;;;;;287.80;267.65;;;;;;;;;;5026195;28;20025;-55
2023/07/03 05:59:59;;;;;;;236.97;219.53;;;;;;;;;;5057459;28;20048;-54
2023/07/03 06:02:24;;;;;;;245.82;226.73;;;;;;;;;;5036090;28;20266;-52
2023/07/03 06:04:50;;;;;;;226.55;208.77;;;;;;;;;;5027553;28;20045;-54
2023/07/03 06:07:16;;;;;;;263.65;245.80;;;;;;;;;;5036060;28;20029;-57
2023/07/03 06:09:41;;;;;;;258.90;239.73;;;;;;;;;;5028485;28;20056;-58
2023/07/03 06:12:07;;;;;;;250.43;233.48;;;;;;;;;;5031401;28;20035;-57
2023/07/03 06:14:32;;;;;;;239.35;221.77;;;;;;;;;;5036610;28;20021;-56
2023/07/03 06:16:58;;;;;;;222.33;206.20;;;;;;;;;;5029814;28;20377;-56
2023/07/03 06:19:24;;;;;;;243.27;226.68;;;;;;;;;;5022815;28;20087;-56
2023/07/03 06:21:49;;;;;;;196.23;181.23;;;;;;;;;;5038517;28;20031;-56
2023/07/03 06:24:15;;;;;;;241.63;224.83;;;;;;;;;;5028252;28;20455;-57
2023/07/03 06:26:40;;;;;;;220.10;205.00;;;;;;;;;;5033023;28;20021;-50
2023/07/03 06:29:07;;;;;;;194.23;178.95;;;;;;;;;;5043903;28;20029;-57
2023/07/03 06:31:32;;;;;;;215.00;200.48;;;;;;;;;;5031665;28;20338;-54
2023/07/03 06:33:58;;;;;;;193.45;178.95;;;;;;;;;;5036765;28;20288;-52
2023/07/03 06:36:23;;;;;;;168.23;156.20;;;;;;;;;;5034150;28;20026;-51
2023/07/03 06:38:52;;;;;;;140.50;129.95;;;;;;;;;;5036462;28;21026;-50
2023/07/03 06:41:18;;;;;;;177.05;164.63;;;;;;;;;;5036051;28;20060;-53
2023/07/03 06:43:43;;;;;;;163.60;151.05;;;;;;;;;;5026325;28;20114;-56
2023/07/03 06:46:10;;;;;;;132.97;122.53;;;;;;;;;;5035623;28;20381;-55
2023/07/03 06:48:36;;;;;;;151.30;139.70;;;;;;;;;;5034328;28;20100;-52
2023/07/03 06:51:02;;;;;;;152.98;142.10;;;;;;;;;;5028434;28;20172;-55
2023/07/03 06:53:27;;;;;;;153.93;142.55;;;;;;;;;;5031024;28;20029;-56
2023/07/03 06:55:57;;;;;;;157.67;146.37;;;;;;;;;;5026195;28;20507;-56
2023/07/03 06:58:23;;;;;;;151.13;139.85;;;;;;;;;;5030823;28;20259;-55
2023/07/03 07:00:48;;;;;;;138.30;127.72;;;;;;;;;;5029690;28;20047;-55
2023/07/03 07:03:13;;;;;;;93.20;86.50;;;;;;;;;;5043343;28;20020;-53
2023/07/03 07:05:38;;;;;;;109.07;101.00;;;;;;;;;;5040761;28;20027;-56
2023/07/03 07:08:04;;;;;;;101.40;94.20;;;;;;;;;;5039822;28;20281;-50
2023/07/03 07:10:29;;;;;;;101.53;94.07;;;;;;;;;;5032400;28;20060;-55
2023/07/03 07:12:54;;;;;;;103.07;95.23;;;;;;;;;;5026259;28;20481;-55
2023/07/03 07:15:20;;;;;;;102.13;94.73;;;;;;;;;;5040813;28;20041;-55
2023/07/03 07:17:45;;;;;;;107.17;99.10;;;;;;;;;;5028986;28;20454;-57
2023/07/03 07:20:10;;;;;;;102.20;94.68;;;;;;;;;;5040452;28;20047;-55
2023/07/03 07:22:36;;;;;;;88.32;81.93;;;;;;;;;;5035662;28;20025;-58
2023/07/03 07:25:01;;;;;;;103.03;94.77;;;;;;;;;;5029286;28;20368;-59
2023/07/03 07:27:26;;;;;;;75.28;69.25;;;;;;;;;;5031239;28;20266;-54
2023/07/03 07:29:52;;;;;;;93.07;86.20;;;;;;;;;;5027460;28;20032;-53
2023/07/03 07:32:17;;;;;;;76.47;70.77;;;;;;;;;;5036872;28;20037;-54
2023/07/03 07:34:42;;;;;;;88.27;82.07;;;;;;;;;;5033507;28;20041;-56
2023/07/03 07:37:07;;;;;;;110.10;102.23;;;;;;;;;;5029331;28;20259;-52
2023/07/03 07:39:33;;;;;;;102.27;94.87;;;;;;;;;;5035768;28;20039;-56
2023/07/03 07:41:58;;;;;;;79.87;74.07;;;;;;;;;;5034659;28;20846;-56
2023/07/03 07:44:23;;;;;;;67.90;62.90;;;;;;;;;;5028963;28;20360;-55
2023/07/03 07:46:49;;;;;;;86.50;80.28;;;;;;;;;;5027565;28;20076;-55
2023/07/03 07:49:14;;;;;;;78.10;71.33;;;;;;;;;;5030092;28;20060;-57
2023/07/03 07:51:39;;;;;;;83.47;76.13;;;;;;;;;;5037094;28;20405;-54
2023/07/03 07:54:05;;;;;;;136.77;125.82;;;;;;;;;;5032533;28;20274;-55
2023/07/03 07:56:30;;;;;;;107.68;99.78;;;;;;;;;;5027632;28;20036;-56
2023/07/03 07:58:56;;;;;;;189.43;174.97;;;;;;;;;;5031838;28;20009;-58
2023/07/03 08:01:21;;;;;;;205.18;190.05;;;;;;;;;;5033924;28;20274;-57
2023/07/03 08:03:46;;;;;;;212.10;196.40;;;;;;;;;;5036340;28;20029;-57
2023/07/03 08:06:13;;;;;;;238.03;221.07;;;;;;;;;;5025476;28;20014;-53
2023/07/03 08:08:38;;;;;;;200.35;184.15;;;;;;;;;;5025486;28;20262;-58
2023/07/03 08:11:04;;;;;;;194.63;179.30;;;;;;;;;;5030037;28;20036;-55
2023/07/03 08:13:30;;;;;;;173.80;160.27;;;;;;;;;;5034796;28;20473;-54
2023/07/03 08:15:56;;;;;;;174.88;160.90;;;;;;;;;;5035392;28;20048;-56
2023/07/03 08:18:22;;;;;;;164.10;151.80;;;;;;;;;;5027881;28;20033;-55
2023/07/03 08:20:48;;;;;;;164.35;151.25;;;;;;;;;;5032977;28;20024;-58
2023/07/03 08:23:13;;;;;;;166.77;153.88;;;;;;;;;;5037794;28;20048;-56
2023/07/03 08:25:39;;;;;;;153.02;140.75;;;;;;;;;;5029024;28;20383;-56
2023/07/03 08:28:04;;;;;;;150.85;139.23;;;;;;;;;;5041743;28;20034;-58
2023/07/03 08:30:29;;;;;;;178.03;163.40;;;;;;;;;;5035035;28;20025;-57
2023/07/03 08:32:55;;;;;;;169.88;155.55;;;;;;;;;;5031130;28;20270;-57
2023/07/03 08:35:20;;;;;;;378.90;344.15;;;;;;;;;;5036934;28;20294;-57
2023/07/03 08:37:46;;;;;;;349.20;318.77;;;;;;;;;;5042896;28;20057;-57
2023/07/03 08:40:15;;;;;;;340.60;310.43;;;;;;;;;;5043495;28;20058;-55
2023/07/03 08:42:46;;;;;;;316.33;288.95;;;;;;;;;;5049395;28;20041;-56
2023/07/03 08:45:12;;;;;;;318.60;290.48;;;;;;;;;;5034561;28;20051;-57
2023/07/03 08:47:39;;;;;;;360.38;329.23;;;;;;;;;;5035861;28;20033;-59
2023/07/03 08:50:05;;;;;;;353.38;323.33;;;;;;;;;;5041161;28;20031;-60
2023/07/03 08:52:37;;;;;;;360.38;328.23;;;;;;;;;;5028449;28;20033;-58
2023/07/03 08:55:05;;;;;;;337.08;308.63;;;;;;;;;;5032751;28;20127;-59
2023/07/03 08:57:31;;;;;;;323.27;295.48;;;;;;;;;;5045800;28;20063;-57
2023/07/03 08:59:56;;;;;;;349.17;320.30;;;;;;;;;;5042521;28;20053;-58
2023/07/03 09:02:25;;;;;;;371.92;339.38;;;;;;;;;;5042573;28;20029;-54
2023/07/03 09:05:18;;;;;;;372.73;339.98;;;;;;;;;;5026065;28;20022;-57
2023/07/03 09:07:43;;;;;;;374.25;343.67;;;;;;;;;;5027780;28;20449;-59
2023/07/03 09:10:22;;;;;;;358.03;327.30;;;;;;;;;;5027758;28;20112;-58
2023/07/03 09:12:47;;;;;;;;;;;;;;;;;;5032227;28;20258;-57
2023/07/03 09:15:16;;;;;;;202.30;184.90;;;;;;;;;;5030596;28;19909;-58
2023/07/03 09:17:42;;;;;;;169.13;154.13;;;;;;;;;;5040177;28;20045;-58
2023/07/03 09:20:10;;;;;;;15.50;4.15;;;;;;;;;;5027062;28;20029;-57
2023/07/03 09:22:47;;;;;;;22.33;5.63;;;;;;;;;;5028197;28;20036;-59
2023/07/03 09:25:33;;;;;;;9.05;4.03;;;;;;;;;;5040163;28;20099;-55
2023/07/03 09:28:00;;;;;;;25.65;6.43;;;;;;;;;;5020988;28;20065;-53
2023/07/03 09:30:26;;;;;;;24.15;6.07;;;;;;;;;;5017466;28;21892;-57
2023/07/03 09:32:51;;;;;;;13.37;3.97;;;;;;;;;;5018984;28;20044;-58
2023/07/03 09:35:16;;;;;;;9.73;3.73;;;;;;;;;;5018860;28;20301;-55
2023/07/03 09:37:45;;;;;;;7.87;3.60;;;;;;;;;;5010674;28;20360;-56
2023/07/03 09:40:28;;;;;;;9.05;3.35;;;;;;;;;;5011060;28;20272;-57
2023/07/03 09:42:53;;;;;;;9.13;3.50;;;;;;;;;;5006940;28;20033;-58
2023/07/03 09:45:22;;;;;;;15.10;4.37;;;;;;;;;;5018720;28;20033;-55
2023/07/03 09:47:49;;;;;;;7.63;3.13;;;;;;;;;;5019731;28;20277;-57
2023/07/03 09:50:14;;;;;;;8.48;3.95;;;;;;;;;;5016842;28;20643;-58
2023/07/03 09:52:47;;;;;;;12.13;3.35;;;;;;;;;;5012142;28;20037;-56
2023/07/03 09:55:12;;;;;;;10.50;3.78;;;;;;;;;;5022180;28;20029;-59
2023/07/03 09:57:38;;;;;;;9.95;3.35;;;;;;;;;;5004623;28;20025;-59
2023/07/03 10:00:09;;;;;;;8.90;3.35;;;;;;;;;;5040792;28;20114;-56
2023/07/03 10:02:34;;;;;;;48.92;45.15;;;;;;;;;;5023705;28;20033;-56
2023/07/03 10:05:00;;;;;;;36.10;33.30;;;;;;;;;;5019161;28;20528;-59
2023/07/03 10:07:25;;;;;;;41.87;38.83;;;;;;;;;;5038501;28;20267;-59
2023/07/03 10:09:50;;;;;;;24.23;22.43;;;;;;;;;;5025191;28;20053;-59
2023/07/03 10:12:16;;;;;;;20.70;18.90;;;;;;;;;;5026714;28;20432;-59
2023/07/03 10:14:52;;;;;;;12.33;10.13;;;;;;;;;;5031091;28;20369;-59
2023/07/03 10:17:20;;;;;;;21.02;18.95;;;;;;;;;;5034951;28;20045;-59
2023/07/03 10:19:47;;;;;;;17.02;12.70;;;;;;;;;;5042132;28;20032;-54
2023/07/03 10:22:13;;;;;;;13.10;11.18;;;;;;;;;;5033339;28;20435;-58
2023/07/03 10:24:40;;;;;;;15.35;13.10;;;;;;;;;;5044643;28;20025;-58
2023/07/03 10:27:06;;;;;;;26.70;15.00;;;;;;;;;;5029653;28;20031;-59
2023/07/03 10:29:33;;;;;;;16.88;15.23;;;;;;;;;;5027999;28;20025;-58
2023/07/03 10:32:04;;;;;;;13.93;12.73;;;;;;;;;;5029829;28;20029;-57
2023/07/03 10:34:42;;;;;;;19.88;17.83;;;;;;;;;;5032835;28;20270;-57
2023/07/03 10:37:10;;;;;;;19.88;17.83;;;;;;;;;;5043157;28;20696;-56
2023/07/03 10:39:49;;;;;;;12.13;10.57;;;;;;;;;;5030776;28;20035;-61
2023/07/03 10:42:32;;;;;;;4.65;3.15;;;;;;;;;;5026989;28;20465;-60
2023/07/03 10:45:02;;;;;;;8.77;3.15;;;;;;;;;;5038602;28;20029;-61
2023/07/03 10:47:39;;;;;;;12.00;8.43;;;;;;;;;;5037802;28;20017;-61
2023/07/03 10:50:05;;;;;;;9.65;8.05;;;;;;;;;;5040824;28;20037;-58
2023/07/03 10:52:52;;;;;;;19.25;17.17;;;;;;;;;;5034344;28;20087;-61
2023/07/03 10:55:17;;;;;;;13.80;10.57;;;;;;;;;;5026573;28;20313;-59
2023/07/03 10:58:02;;;;;;;14.53;13.13;;;;;;;;;;5039561;28;20233;-59
2023/07/03 11:00:30;;;;;;;16.15;13.77;;;;;;;;;;5030690;28;20024;-60
2023/07/03 11:02:56;;;;;;;;;;;;;;;;;;5040701;28;20021;-60
2023/07/03 11:05:29;;;;;;;15.77;10.52;;;;;;;;;;5038156;28;20007;-59
2023/07/03 11:07:54;;;;;;;21.55;15.70;;;;;;;;;;5038358;28;20031;-56
2023/07/03 11:10:32;;;;;;;17.02;15.43;;;;;;;;;;5034167;28;20030;-58
2023/07/03 11:13:11;;;;;;;13.48;11.63;;;;;;;;;;5043551;28;20451;-62
2023/07/03 11:16:03;;;;;;;17.00;15.43;;;;;;;;;;5012214;28;20029;-65
2023/07/03 11:18:48;;;;;;;18.33;16.58;;;;;;;;;;5008818;28;20501;-61
2023/07/03 11:21:33;;;;;;;17.67;16.00;;;;;;;;;;5012637;28;20052;-61
2023/07/03 11:24:03;;;;;;;17.02;13.65;;;;;;;;;;5015815;28;20045;-59
2023/07/03 11:26:32;;;;;;;17.30;15.75;;;;;;;;;;5017350;28;20176;-60
2023/07/03 11:28:57;;;;;;;12.13;9.32;;;;;;;;;;5007251;28;20117;-59
2023/07/03 11:31:24;;;;;;;14.52;9.38;;;;;;;;;;5016985;28;20033;-56
2023/07/03 11:33:51;;;;;;;13.38;10.82;;;;;;;;;;5018940;28;20021;-59
2023/07/03 11:36:35;;;;;;;10.80;8.45;;;;;;;;;;5001404;28;20033;-61
2023/07/03 11:39:20;;;;;;;13.88;8.18;;;;;;;;;;5008388;28;20029;-61
2023/07/03 11:41:48;;;;;;;17.40;15.77;;;;;;;;;;5019077;28;20045;-60
2023/07/03 11:44:13;;;;;;;;;;;;;;;;;;5030255;28;20468;-58
2023/07/03 11:46:38;;;;;;;14.82;13.60;;;;;;;;;;5010278;28;20394;-59
2023/07/03 11:49:09;;;;;;;28.60;21.73;;;;;;;;;;5019344;28;20464;-59
2023/07/03 11:51:36;;;;;;;24.85;22.05;;;;;;;;;;5013719;28;20654;-58
2023/07/03 11:54:14;;;;;;;24.70;21.92;;;;;;;;;;5019670;28;20116;-61
2023/07/03 11:56:39;;;;;;;30.02;27.05;;;;;;;;;;5028573;28;20021;-59
2023/07/03 11:59:10;;;;;;;29.80;27.03;;;;;;;;;;5029415;28;20557;-64
2023/07/03 12:01:36;;;;;;;17.58;15.70;;;;;;;;;;5025226;28;20277;-60
2023/07/03 12:04:07;;;;;;;22.95;19.08;;;;;;;;;;5032508;28;20027;-60
2023/07/03 12:06:39;;;;;;;30.27;27.52;;;;;;;;;;5035000;28;20139;-61
2023/07/03 12:09:23;;;;;;;27.80;25.20;;;;;;;;;;5029437;28;20025;-63
2023/07/03 12:12:00;;;;;;;19.88;17.27;;;;;;;;;;5037729;28;20033;-61
2023/07/03 12:17:15;;;;;;;22.20;20.10;;;;;;;;;;5029929;28;20049;-61
2023/07/03 12:19:41;;;;;;;30.90;28.13;;;;;;;;;;5033775;28;20140;-63
2023/07/03 12:22:06;;;;;;;36.37;32.97;;;;;;;;;;5043541;28;20103;-64
2023/07/03 12:24:31;;;;;;;27.52;25.02;;;;;;;;;;5039824;28;20384;-63
2023/07/03 12:27:02;;;;;;;25.57;22.83;;;;;;;;;;5039016;28;20052;-61
2023/07/03 12:29:30;;;;;;;34.40;31.60;;;;;;;;;;5030114;28;20262;-60
2023/07/03 12:31:56;;;;;;;33.17;30.00;;;;;;;;;;5031276;28;20029;-63
2023/07/03 12:34:26;;;;;;;34.65;31.83;;;;;;;;;;5038835;28;20123;-62
2023/07/03 12:36:57;;;;;;;34.08;31.05;;;;;;;;;;5035925;28;20059;-61
2023/07/03 12:39:22;;;;;;;23.88;21.65;;;;;;;;;;5024778;28;20126;-62
2023/07/03 12:41:47;;;;;;;18.03;16.17;;;;;;;;;;5034788;28;20472;-61
2023/07/03 12:44:13;;;;;;;32.08;29.23;;;;;;;;;;5032068;28;20025;-62
2023/07/03 12:46:39;;;;;;;45.13;41.23;;;;;;;;;;5040622;28;20555;-59
2023/07/03 12:49:23;;;;;;;36.38;33.17;;;;;;;;;;5038943;28;20297;-58
2023/07/03 12:51:50;;;;;;;42.63;39.10;;;;;;;;;;5027797;28;20061;-59
2023/07/03 12:54:16;;;;;;;54.85;50.45;;;;;;;;;;5033636;28;20064;-57
2023/07/03 12:56:42;;;;;;;40.80;37.50;;;;;;;;;;5031393;28;20129;-60
2023/07/03 12:59:08;;;;;;;47.03;43.05;;;;;;;;;;5039348;28;20022;-60
2023/07/03 13:01:35;;;;;;;51.53;47.47;;;;;;;;;;5040064;28;20032;-62
2023/07/03 13:04:01;;;;;;;49.20;45.28;;;;;;;;;;5034566;28;20044;-62
2023/07/03 13:06:27;;;;;;;26.08;23.50;;;;;;;;;;5038206;28;20737;-63
2023/07/03 13:08:54;;;;;;;53.35;48.90;;;;;;;;;;5037024;28;20029;-61
2023/07/03 13:11:39;;;;;;;52.67;48.65;;;;;;;;;;5039848;28;20036;-58
2023/07/03 13:14:11;;;;;;;54.22;49.45;;;;;;;;;;5043162;28;20033;-61
2023/07/03 13:16:37;;;;;;;35.30;31.90;;;;;;;;;;5034942;28;20715;-62
2023/07/03 13:19:03;;;;;;;30.67;27.80;;;;;;;;;;5043217;28;20037;-58
2023/07/03 13:21:28;;;;;;;33.30;30.30;;;;;;;;;;5028580;28;20026;-63
2023/07/03 13:23:54;;;;;;;28.15;25.50;;;;;;;;;;5036252;28;20366;-61
2023/07/03 13:26:24;;;;;;;41.50;37.43;;;;;;;;;;5043928;28;20116;-60
2023/07/03 13:29:01;;;;;;;35.35;32.17;;;;;;;;;;5028817;28;20263;-61
2023/07/03 13:31:30;;;;;;;31.10;28.02;;;;;;;;;;5031655;28;20021;-63
2023/07/03 13:33:58;;;;;;;38.97;34.95;;;;;;;;;;5039280;28;20021;-61
2023/07/03 13:36:31;;;;;;;39.58;36.15;;;;;;;;;;5028846;28;20647;-60
2023/07/03 13:39:03;;;;;;;41.55;37.28;;;;;;;;;;5044560;28;20028;-61
2023/07/03 13:41:28;;;;;;;22.75;11.73;;;;;;;;;;5034048;28;20033;-61
2023/07/03 13:43:56;;;;;;;25.90;19.77;;;;;;;;;;5029088;28;20074;-62
2023/07/03 13:46:21;;;;;;;;;;;;;;;;;;5032548;28;20344;-59
2023/07/03 13:48:47;;;;;;;26.50;20.03;;;;;;;;;;5036244;28;20273;-60
2023/07/03 13:51:12;;;;;;;26.67;22.97;;;;;;;;;;5046998;28;20029;-60
2023/07/03 13:53:38;;;;;;;61.92;56.65;;;;;;;;;;5039810;28;20559;-60
2023/07/03 13:56:03;;;;;;;40.67;37.17;;;;;;;;;;5047895;28;20017;-60
2023/07/03 13:58:29;;;;;;;38.40;35.05;;;;;;;;;;5042399;28;20099;-59
2023/07/03 14:00:54;;;;;;;56.03;51.07;;;;;;;;;;5031545;28;20838;-61
2023/07/03 14:03:20;;;;;;;80.27;73.10;;;;;;;;;;5043293;28;20351;-58
2023/07/03 14:05:45;;;;;;;102.97;94.65;;;;;;;;;;5035096;28;20266;-55
2023/07/03 14:08:11;;;;;;;39.17;35.47;;;;;;;;;;5026272;28;20499;-55